createdAt,value
2022-11-23T00:02:26.189Z,7.12
2022-11-23T00:06:28.399Z,7.06
2022-11-23T00:10:30.374Z,7.03
2022-11-23T00:14:32.599Z,7.01
2022-11-23T00:18:34.894Z,6.99
2022-11-23T00:22:36.889Z,6.92
2022-11-23T00:26:39.176Z,6.87
2022-11-23T00:30:41.209Z,6.87
2022-11-23T00:34:43.693Z,6.87
2022-11-23T00:38:46.058Z,6.84
2022-11-23T00:42:48.059Z,6.90
2022-11-23T00:46:50.107Z,6.90
2022-11-23T00:50:52.119Z,6.92
2022-11-23T00:54:54.136Z,6.93
2022-11-23T00:58:58.564Z,6.96
2022-11-23T01:03:01.153Z,7.00
2022-11-23T01:07:04.253Z,7.07
2022-11-23T01:11:10.430Z,7.12
2022-11-23T01:15:12.447Z,7.18
2022-11-23T01:19:17.797Z,7.20
2022-11-23T01:23:23.002Z,7.22
2022-11-23T01:27:25.038Z,7.26
2022-11-23T01:31:27.336Z,7.28
2022-11-23T01:35:29.447Z,7.29
2022-11-23T01:39:31.732Z,7.28
2022-11-23T01:43:34.072Z,7.26
2022-11-23T01:47:37.268Z,7.21
2022-11-23T01:51:44.500Z,7.21
2022-11-23T01:55:47.972Z,7.21
2022-11-23T01:59:51.426Z,7.19
2022-11-23T02:03:56.453Z,7.13
2022-11-23T02:08:00.578Z,7.13
2022-11-23T02:12:02.590Z,7.13
2022-11-23T02:16:04.787Z,7.15
2022-11-23T02:20:17.550Z,7.14
2022-11-23T02:24:33.547Z,7.19
2022-11-23T02:28:41.152Z,7.23
2022-11-23T02:32:44.039Z,7.21
2022-11-23T02:36:55.033Z,7.22
2022-11-23T02:40:57.613Z,7.22
2022-11-23T02:45:15.765Z,7.23
2022-11-23T02:49:17.766Z,7.22
2022-11-23T02:53:19.779Z,7.21
2022-11-23T02:57:21.807Z,7.24
2022-11-23T03:01:23.962Z,7.26
2022-11-23T03:05:26.526Z,7.28
2022-11-23T03:09:28.610Z,7.28
2022-11-23T03:13:31.775Z,7.42
2022-11-23T03:17:35.582Z,7.43
2022-11-23T03:21:37.927Z,7.43
2022-11-23T03:25:42.690Z,7.45
2022-11-23T03:29:45.705Z,7.42
2022-11-23T03:33:53.035Z,7.42
2022-11-23T03:37:55.043Z,7.42
2022-11-23T03:41:57.066Z,7.41
2022-11-23T03:46:05.289Z,7.39
2022-11-23T03:50:07.850Z,7.36
2022-11-23T03:54:10.039Z,7.38
2022-11-23T03:58:13.596Z,7.37
2022-11-23T04:02:16.693Z,7.31
2022-11-23T04:06:26.830Z,7.30
2022-11-23T04:10:35.934Z,7.23
2022-11-23T04:14:47.794Z,7.06
2022-11-23T04:18:49.846Z,6.99
2022-11-23T04:22:52.143Z,6.99
2022-11-23T04:26:54.299Z,7.00
2022-11-23T04:30:58.694Z,7.00
2022-11-23T04:35:03.775Z,6.98
2022-11-23T04:39:07.299Z,7.00
2022-11-23T04:43:17.048Z,7.07
2022-11-23T04:47:19.106Z,7.14
2022-11-23T04:51:23.005Z,7.17
2022-11-23T04:55:26.130Z,7.20
2022-11-23T04:59:32.530Z,7.19
2022-11-23T05:03:35.076Z,7.19
2022-11-23T05:07:39.568Z,7.13
2022-11-23T05:11:41.863Z,7.14
2022-11-23T05:15:45.333Z,7.16
2022-11-23T05:19:51.840Z,7.18
2022-11-23T05:23:54.924Z,7.18
2022-11-23T05:27:57.107Z,7.23
2022-11-23T05:31:59.268Z,7.23
2022-11-23T05:36:01.532Z,7.23
2022-11-23T05:40:12.287Z,7.22
2022-11-23T05:44:14.537Z,7.20
2022-11-23T05:48:16.846Z,7.15
2022-11-23T05:52:31.822Z,7.08
2022-11-23T05:56:37.367Z,7.05
2022-11-23T06:00:48.305Z,7.06
2022-11-23T06:04:52.221Z,7.07
2022-11-23T06:09:00.516Z,7.06
2022-11-23T06:13:04.677Z,7.03
2022-11-23T06:17:07.834Z,7.04
2022-11-23T06:21:18.227Z,7.03
2022-11-23T06:25:21.271Z,6.98
2022-11-23T06:29:34.392Z,6.99
2022-11-23T06:33:36.851Z,6.99
2022-11-23T06:37:38.892Z,7.07
2022-11-23T06:41:41.214Z,7.11
2022-11-23T06:45:44.683Z,7.13
2022-11-23T06:49:49.804Z,7.13
2022-11-23T06:54:00.577Z,7.14
2022-11-23T06:58:02.819Z,7.15
2022-11-23T07:02:05.093Z,7.19
2022-11-23T07:06:11.149Z,7.57
2022-11-23T07:10:13.895Z,7.74
2022-11-23T07:14:21.115Z,7.68
2022-11-23T07:18:26.552Z,7.64
2022-11-23T07:22:33.726Z,7.61
2022-11-23T07:26:35.753Z,7.60
2022-11-23T07:30:39.719Z,7.57
2022-11-23T07:34:41.793Z,7.59
2022-11-23T07:38:44.305Z,7.65
2022-11-23T07:42:48.556Z,7.67
2022-11-23T07:46:53.757Z,7.66
2022-11-23T07:50:55.772Z,7.69
2022-11-23T07:54:57.859Z,7.77
2022-11-23T07:58:59.854Z,7.79
2022-11-23T08:03:26.799Z,7.82
2022-11-23T08:07:24.084Z,7.85
2022-11-23T08:11:26.104Z,7.86
2022-11-23T08:15:28.140Z,7.76
2022-11-23T08:19:30.163Z,7.60
2022-11-23T08:23:32.311Z,7.65
2022-11-23T08:27:34.316Z,7.75
2022-11-23T08:31:36.375Z,7.81
2022-11-23T08:35:40.844Z,7.89
2022-11-23T08:39:42.902Z,7.89
2022-11-23T08:43:44.903Z,7.93
2022-11-23T08:47:47.208Z,7.91
2022-11-23T08:51:50.409Z,7.92
2022-11-23T08:55:52.537Z,7.92
2022-11-23T08:59:54.736Z,7.94
2022-11-23T09:03:56.731Z,7.96
2022-11-23T09:08:02.327Z,7.99
2022-11-23T09:12:04.880Z,8.14
2022-11-23T09:16:07.509Z,8.27
2022-11-23T09:20:10.610Z,8.34
2022-11-23T09:24:13.126Z,8.37
2022-11-23T09:28:19.634Z,8.37
2022-11-23T09:32:21.664Z,8.36
2022-11-23T09:36:24.050Z,8.36
2022-11-23T09:40:32.596Z,8.41
2022-11-23T09:44:57.967Z,8.47
2022-11-23T09:49:10.582Z,8.61
2022-11-23T09:53:18.386Z,8.65
2022-11-23T09:57:26.630Z,8.55
2022-11-23T10:01:30.399Z,8.59
2022-11-23T10:05:38.334Z,8.65
2022-11-23T10:09:52.265Z,8.73
2022-11-23T10:14:13.294Z,8.81
2022-11-23T10:18:15.271Z,8.84
2022-11-23T10:22:26.527Z,8.91
2022-11-23T10:26:32.648Z,9.09
2022-11-23T10:30:34.977Z,9.40
2022-11-23T10:34:56.911Z,9.64
2022-11-23T10:39:00.609Z,9.64
2022-11-23T10:43:11.897Z,9.59
2022-11-23T10:47:34.254Z,9.67
2022-11-23T10:51:37.750Z,9.70
2022-11-23T10:56:11.739Z,9.80
2022-11-23T11:00:17.885Z,9.95
2022-11-23T11:04:25.650Z,10.17
2022-11-23T11:08:33.525Z,10.24
2022-11-23T11:12:35.699Z,10.14
2022-11-23T11:16:38.614Z,10.10
2022-11-23T11:20:45.050Z,10.21
2022-11-23T11:24:47.317Z,10.27
2022-11-23T11:28:54.524Z,10.18
2022-11-23T11:33:04.542Z,10.12
2022-11-23T11:37:18.940Z,10.16
2022-11-23T11:41:25.355Z,10.16
2022-11-23T11:45:37.337Z,10.21
2022-11-23T11:49:47.268Z,10.28
2022-11-23T11:54:14.245Z,10.15
2022-11-23T11:58:17.909Z,10.10
2022-11-23T12:02:49.027Z,10.18
2022-11-23T12:07:04.953Z,10.28
2022-11-23T12:11:11.704Z,10.37
2022-11-23T12:20:09.769Z,10.44
2022-11-23T12:24:32.677Z,10.47
2022-11-23T12:28:58.699Z,10.49
2022-11-23T12:33:12.265Z,10.27
2022-11-23T12:37:23.410Z,10.31
2022-11-23T12:41:49.531Z,10.30
2022-11-23T12:46:10.368Z,10.21
2022-11-23T12:50:27.350Z,10.17
2022-11-23T12:55:00.590Z,10.15
2022-11-23T12:59:03.879Z,10.21
2022-11-23T13:03:22.157Z,10.12
2022-11-23T13:08:02.029Z,10.01
2022-11-23T13:12:36.365Z,9.95
2022-11-23T13:17:18.794Z,9.95
2022-11-23T13:21:40.903Z,9.93
2022-11-23T13:25:43.145Z,9.92
2022-11-23T13:29:51.420Z,9.89
2022-11-23T13:34:01.956Z,9.85
2022-11-23T13:38:25.445Z,9.82
2022-11-23T13:42:31.106Z,9.82
2022-11-23T13:46:35.742Z,9.77
2022-11-23T13:50:40.890Z,9.72
2022-11-23T13:54:54.803Z,9.69
2022-11-23T13:58:59.816Z,9.65
2022-11-23T14:03:39.621Z,9.58
2022-11-23T14:07:46.252Z,9.54
2022-11-23T14:11:59.040Z,9.51
2022-11-23T14:16:04.062Z,9.49
2022-11-23T14:20:24.771Z,9.44
2022-11-23T14:24:42.860Z,9.37
2022-11-23T14:29:06.210Z,9.31
2022-11-23T14:33:26.246Z,9.21
2022-11-23T14:37:43.204Z,9.11
2022-11-23T14:41:49.965Z,9.00
2022-11-23T14:45:52.797Z,8.91
2022-11-23T14:49:54.972Z,8.81
2022-11-23T14:54:00.126Z,8.70
2022-11-23T14:58:05.379Z,8.62
2022-11-23T15:02:20.188Z,8.54
2022-11-23T15:06:27.131Z,8.45
2022-11-23T15:11:02.950Z,8.34
2022-11-23T15:15:26.134Z,8.23
2022-11-23T15:19:29.753Z,8.16
2022-11-23T15:23:38.519Z,8.07
2022-11-23T15:27:41.928Z,7.96
2022-11-23T15:32:07.020Z,7.89
2022-11-23T15:36:06.654Z,7.82
2022-11-23T15:40:13.456Z,7.74
2022-11-23T15:44:27.646Z,7.67
2022-11-23T15:48:35.371Z,7.61
2022-11-23T15:52:38.115Z,7.57
2022-11-23T15:56:44.548Z,7.56
2022-11-23T16:00:53.394Z,7.63
2022-11-23T16:05:11.167Z,7.65
2022-11-23T16:09:55.484Z,7.62
2022-11-23T16:14:34.479Z,7.56
2022-11-23T16:18:36.616Z,7.55
2022-11-23T16:22:40.709Z,7.58
2022-11-23T16:26:43.813Z,7.65
2022-11-23T16:30:49.015Z,7.76
2022-11-23T16:34:52.187Z,7.91
2022-11-23T16:38:56.338Z,8.01
2022-11-23T16:43:00.729Z,8.14
2022-11-23T16:47:22.924Z,8.22
2022-11-23T16:51:25.240Z,8.29
2022-11-23T16:55:27.303Z,8.35
2022-11-23T16:59:29.309Z,8.38
2022-11-23T17:03:33.241Z,8.39
2022-11-23T17:07:35.318Z,8.40
2022-11-23T17:11:44.710Z,8.40
2022-11-23T17:15:46.887Z,8.46
2022-11-23T17:19:50.204Z,8.50
2022-11-23T17:23:52.240Z,8.57
2022-11-23T17:27:54.287Z,8.61
2022-11-23T17:31:56.343Z,8.67
2022-11-23T17:35:59.826Z,8.69
2022-11-23T17:40:01.793Z,8.69
2022-11-23T17:44:04.051Z,8.70
2022-11-23T17:48:06.265Z,8.73
2022-11-23T17:52:11.312Z,8.70
2022-11-23T17:56:19.467Z,8.67
2022-11-23T18:00:23.329Z,8.60
2022-11-23T18:04:25.298Z,8.59
2022-11-23T18:08:27.383Z,8.54
2022-11-23T18:12:29.657Z,8.45
2022-11-23T18:16:31.853Z,8.36
2022-11-23T18:20:34.236Z,8.31
2022-11-23T18:24:36.276Z,8.25
2022-11-23T18:28:38.282Z,8.14
2022-11-23T18:32:40.350Z,8.03
2022-11-23T18:36:42.444Z,7.98
2022-11-23T18:40:44.446Z,7.87
2022-11-23T18:44:46.497Z,7.77
2022-11-23T18:48:50.242Z,7.74
2022-11-23T18:52:52.193Z,7.71
2022-11-23T18:56:54.198Z,7.70
2022-11-23T19:00:56.676Z,7.65
2022-11-23T19:04:58.698Z,7.58
2022-11-23T19:09:02.905Z,7.59
2022-11-23T19:13:06.095Z,7.60
2022-11-23T19:17:08.620Z,7.63
2022-11-23T19:21:21.931Z,7.64
2022-11-23T19:25:24.826Z,7.65
2022-11-23T19:29:28.505Z,7.61
2022-11-23T19:33:30.474Z,7.64
2022-11-23T19:37:35.452Z,7.68
2022-11-23T19:41:37.534Z,7.74
2022-11-23T19:45:39.739Z,7.78
2022-11-23T19:49:41.721Z,7.82
2022-11-23T19:53:45.178Z,7.83
2022-11-23T19:57:47.181Z,7.83
2022-11-23T20:01:49.396Z,7.84
2022-11-23T20:06:00.046Z,7.86
2022-11-23T20:10:02.086Z,7.88
2022-11-23T20:14:04.742Z,7.92
2022-11-23T20:18:06.730Z,7.97
2022-11-23T20:22:08.744Z,7.97
2022-11-23T20:26:14.584Z,8.00
2022-11-23T20:30:16.615Z,8.00
2022-11-23T20:34:22.974Z,8.05
2022-11-23T20:38:27.244Z,8.12
2022-11-23T20:42:29.264Z,8.12
2022-11-23T20:50:54.961Z,8.19
2022-11-23T20:54:56.996Z,8.17
2022-11-23T20:59:04.040Z,8.09
2022-11-23T21:03:06.026Z,7.96
2022-11-23T21:07:08.233Z,7.83
2022-11-23T21:11:33.669Z,7.67
2022-11-23T21:15:35.683Z,7.50
2022-11-23T21:19:39.539Z,7.36
2022-11-23T21:23:41.587Z,7.26
2022-11-23T21:27:43.653Z,7.18
2022-11-23T21:31:47.394Z,7.06
2022-11-23T21:35:49.725Z,6.96
2022-11-23T21:39:53.226Z,6.89
2022-11-23T21:43:55.401Z,6.86
2022-11-23T21:47:57.472Z,6.84
2022-11-23T21:51:59.740Z,6.78
2022-11-23T21:56:04.380Z,6.77
2022-11-23T22:00:07.256Z,6.77
2022-11-23T22:04:15.408Z,6.89
2022-11-23T22:08:33.097Z,6.89
2022-11-23T22:12:35.178Z,6.88
2022-11-23T22:16:39.915Z,6.78
2022-11-23T22:20:42.076Z,6.65
2022-11-23T22:24:44.135Z,6.60
2022-11-23T22:28:51.280Z,6.62
2022-11-23T22:32:53.303Z,6.68
2022-11-23T22:36:55.280Z,6.81
2022-11-23T22:40:57.325Z,6.94
2022-11-23T22:44:59.338Z,7.12
2022-11-23T22:49:01.871Z,7.28
2022-11-23T22:53:03.976Z,7.45
2022-11-23T22:57:05.996Z,7.56
2022-11-23T23:01:14.684Z,7.64
2022-11-23T23:05:16.793Z,7.64
2022-11-23T23:09:18.945Z,7.63
2022-11-23T23:13:21.890Z,7.70
2022-11-23T23:17:23.993Z,7.74
2022-11-23T23:21:28.171Z,7.83
2022-11-23T23:25:30.596Z,7.81
2022-11-23T23:29:32.602Z,7.80
2022-11-23T23:33:34.956Z,7.78
2022-11-23T23:37:37.161Z,7.81
2022-11-23T23:41:39.198Z,7.90
2022-11-23T23:45:41.296Z,7.95
2022-11-23T23:49:43.293Z,7.93
2022-11-23T23:53:46.211Z,7.90
2022-11-23T23:57:48.309Z,8.00
